Time;durP1;ratioP1;P1;durP2;ratioP2;P2;SDS_P1;SDS_P2;PMS_P1;PMS_P2;Temp;Humidity;BMP_temperature;BMP_pressure;BME280_temperature;BME280_humidity;BME280_pressure;Samples;Min_cycle;Max_cycle;Signal;HPM_P1;HPM_P2
2021/12/08 00:01:52;;;;;;;33.15;12.70;;;;;;;;;;5117947;28;20429;-72
2021/12/08 00:04:18;;;;;;;29.30;10.95;;;;;;;;;;5099160;28;20059;-73
2021/12/08 00:06:45;;;;;;;31.92;11.50;;;;;;;;;;5117480;28;20039;-74
2021/12/08 00:09:27;;;;;;;32.88;12.23;;;;;;;;;;5117925;28;20024;-73
2021/12/08 00:14:38;;;;;;;32.38;11.95;;;;;;;;;;5117876;28;20168;-74
2021/12/08 00:17:05;;;;;;;30.55;11.18;;;;;;;;;;5117143;28;20020;-74
2021/12/08 00:19:31;;;;;;;27.63;10.68;;;;;;;;;;5117006;28;20039;-74
2021/12/08 00:21:58;;;;;;;37.33;12.73;;;;;;;;;;5117034;28;20102;-74
2021/12/08 00:24:25;;;;;;;32.17;11.90;;;;;;;;;;5117296;28;20092;-74
2021/12/08 00:26:54;;;;;;;29.27;10.48;;;;;;;;;;5117255;28;20030;-74
2021/12/08 00:29:20;;;;;;;32.30;11.70;;;;;;;;;;5098698;28;20454;-73
2021/12/08 00:31:47;;;;;;;34.20;12.45;;;;;;;;;;5117442;28;20077;-73
2021/12/08 00:34:13;;;;;;;35.35;12.07;;;;;;;;;;5098610;28;20118;-73
2021/12/08 00:36:46;;;;;;;36.47;13.02;;;;;;;;;;5098486;28;20440;-73
2021/12/08 00:39:13;;;;;;;35.72;12.10;;;;;;;;;;5098573;28;20034;-73
2021/12/08 00:41:40;;;;;;;35.13;11.80;;;;;;;;;;5116845;28;20042;-74
2021/12/08 00:44:07;;;;;;;35.53;13.45;;;;;;;;;;5116766;28;20490;-72
2021/12/08 00:46:34;;;;;;;30.17;12.05;;;;;;;;;;5116537;28;20475;-72
2021/12/08 00:49:00;;;;;;;37.05;12.45;;;;;;;;;;5116564;28;20383;-72
2021/12/08 00:51:26;;;;;;;34.30;13.30;;;;;;;;;;5117218;28;20024;-73
2021/12/08 00:53:53;;;;;;;36.47;13.50;;;;;;;;;;5116458;28;20034;-73
2021/12/08 00:56:19;;;;;;;43.58;16.42;;;;;;;;;;5116390;28;20026;-75
2021/12/08 00:58:45;;;;;;;44.05;16.00;;;;;;;;;;5116732;28;20020;-72
2021/12/08 01:01:12;;;;;;;54.35;17.40;;;;;;;;;;5115405;28;20475;-71
2021/12/08 01:03:39;;;;;;;37.80;14.73;;;;;;;;;;5116256;28;20025;-72
2021/12/08 01:06:05;;;;;;;42.53;14.75;;;;;;;;;;5116268;28;20059;-72
2021/12/08 01:08:33;;;;;;;41.42;15.65;;;;;;;;;;5116501;28;20051;-73
2021/12/08 01:11:01;;;;;;;56.47;18.98;;;;;;;;;;5116426;28;20093;-72
2021/12/08 01:13:28;;;;;;;55.85;21.88;;;;;;;;;;5097807;28;20024;-72
2021/12/08 01:15:56;;;;;;;65.60;22.33;;;;;;;;;;5097910;28;20028;-72
2021/12/08 01:18:22;;;;;;;58.60;21.77;;;;;;;;;;5097764;28;20051;-72
2021/12/08 01:20:50;;;;;;;63.38;21.40;;;;;;;;;;5116102;28;20032;-72
2021/12/08 01:23:16;;;;;;;57.65;19.95;;;;;;;;;;5115914;28;20067;-73
2021/12/08 01:25:43;;;;;;;49.65;17.85;;;;;;;;;;5115916;28;20035;-72
2021/12/08 01:28:10;;;;;;;51.90;17.60;;;;;;;;;;5115797;28;20030;-73
2021/12/08 01:30:36;;;;;;;59.13;17.85;;;;;;;;;;5115555;28;20035;-71
2021/12/08 01:33:03;;;;;;;37.53;14.90;;;;;;;;;;5097377;28;20089;-72
2021/12/08 01:35:30;;;;;;;47.40;15.18;;;;;;;;;;5097378;28;20049;-72
2021/12/08 01:37:56;;;;;;;33.95;13.15;;;;;;;;;;5115547;28;20116;-73
2021/12/08 01:40:23;;;;;;;40.50;14.25;;;;;;;;;;5115401;28;20071;-73
2021/12/08 01:42:53;;;;;;;34.25;13.65;;;;;;;;;;5115705;28;20042;-73
2021/12/08 01:48:18;;;;;;;32.58;10.57;;;;;;;;;;5115727;28;20088;-71
2021/12/08 01:50:46;;;;;;;28.38;10.80;;;;;;;;;;5097019;28;20368;-71
2021/12/08 01:53:13;;;;;;;31.92;11.10;;;;;;;;;;5096989;28;20368;-74
2021/12/08 01:55:40;;;;;;;27.67;11.18;;;;;;;;;;5115272;28;20027;-73
2021/12/08 01:58:06;;;;;;;20.88;9.50;;;;;;;;;;5097796;28;20027;-72
2021/12/08 02:00:35;;;;;;;27.67;11.88;;;;;;;;;;5096832;28;20108;-74
2021/12/08 02:03:02;;;;;;;34.17;11.70;;;;;;;;;;5115648;28;20027;-74
2021/12/08 02:05:29;;;;;;;32.90;12.52;;;;;;;;;;5096774;28;20055;-74
2021/12/08 02:07:55;;;;;;;36.40;12.63;;;;;;;;;;5093214;28;20058;-75
2021/12/08 02:10:22;;;;;;;26.25;10.85;;;;;;;;;;5094808;28;20030;-74
2021/12/08 02:12:48;;;;;;;40.75;13.85;;;;;;;;;;5093256;28;20036;-73
2021/12/08 02:15:16;;;;;;;33.85;11.98;;;;;;;;;;5095058;28;20028;-74
2021/12/08 02:17:44;;;;;;;26.40;10.88;;;;;;;;;;5093224;28;20039;-74
2021/12/08 02:20:11;;;;;;;36.13;12.52;;;;;;;;;;5093146;28;20130;-74
2021/12/08 02:22:39;;;;;;;23.40;10.48;;;;;;;;;;5094959;28;20150;-74
2021/12/08 02:25:07;;;;;;;36.17;11.80;;;;;;;;;;5094327;28;20085;-74
2021/12/08 02:27:34;;;;;;;29.35;11.55;;;;;;;;;;5093055;28;20046;-75
2021/12/08 02:30:12;;;;;;;39.97;14.43;;;;;;;;;;5092986;28;20028;-74
2021/12/08 02:46:47;;;;;;;28.92;9.93;;;;;;;;;;5094526;28;20085;-73
2021/12/08 02:49:13;;;;;;;28.50;9.57;;;;;;;;;;5092656;28;20024;-73
2021/12/08 02:51:39;;;;;;;19.38;8.65;;;;;;;;;;5094482;28;20024;-73
2021/12/08 02:54:06;;;;;;;21.85;7.70;;;;;;;;;;5092604;28;20028;-74
2021/12/08 02:56:32;;;;;;;23.40;7.38;;;;;;;;;;5094351;28;20046;-74
2021/12/08 02:58:59;;;;;;;22.35;8.23;;;;;;;;;;5092561;28;20047;-74
2021/12/08 03:01:27;;;;;;;19.00;7.85;;;;;;;;;;5093861;28;20088;-74
2021/12/08 03:03:53;;;;;;;21.00;7.47;;;;;;;;;;5094330;28;20024;-74
2021/12/08 03:06:20;;;;;;;21.33;7.93;;;;;;;;;;5098945;28;20050;-73
2021/12/08 03:08:47;;;;;;;25.15;8.98;;;;;;;;;;5113951;28;20157;-74
2021/12/08 03:11:13;;;;;;;23.63;9.65;;;;;;;;;;5095716;28;20023;-74
2021/12/08 03:13:41;;;;;;;21.10;7.75;;;;;;;;;;5113888;28;20016;-74
2021/12/08 03:16:12;;;;;;;21.73;8.48;;;;;;;;;;5096481;28;20095;-75
2021/12/08 03:18:40;;;;;;;18.33;7.72;;;;;;;;;;5095674;28;20100;-74
2021/12/08 03:21:08;;;;;;;24.77;8.27;;;;;;;;;;5113809;28;20454;-75
2021/12/08 03:23:49;;;;;;;27.25;8.73;;;;;;;;;;5113401;28;20069;-75
2021/12/08 03:26:18;;;;;;;20.10;8.98;;;;;;;;;;5095640;28;20023;-72
2021/12/08 03:28:57;;;;;;;20.45;8.48;;;;;;;;;;5095572;28;20081;-73
2021/12/08 03:31:29;;;;;;;27.33;9.38;;;;;;;;;;5095605;28;20024;-73
2021/12/08 03:33:56;;;;;;;21.95;8.45;;;;;;;;;;5095593;28;20020;-74
2021/12/08 03:36:22;;;;;;;30.95;10.73;;;;;;;;;;5113633;28;20023;-75
2021/12/08 03:38:48;;;;;;;31.98;10.50;;;;;;;;;;5113728;28;20476;-74
2021/12/08 03:41:15;;;;;;;29.38;11.38;;;;;;;;;;5095295;28;20122;-74
2021/12/08 03:43:41;;;;;;;24.33;9.98;;;;;;;;;;5113950;28;20058;-75
2021/12/08 03:46:11;;;;;;;31.90;10.15;;;;;;;;;;5113549;28;20552;-73
2021/12/08 03:48:45;;;;;;;26.83;10.02;;;;;;;;;;5114207;28;20015;-74
2021/12/08 03:51:12;;;;;;;23.20;9.75;;;;;;;;;;5095308;28;20020;-74
2021/12/08 03:53:38;;;;;;;32.35;9.95;;;;;;;;;;5113728;28;20047;-74
2021/12/08 03:56:05;;;;;;;23.52;9.18;;;;;;;;;;5113795;28;20383;-73
2021/12/08 03:58:31;;;;;;;22.02;8.77;;;;;;;;;;5095240;28;20027;-74
2021/12/08 04:00:58;;;;;;;22.08;9.30;;;;;;;;;;5114234;28;20058;-73
2021/12/08 04:03:26;;;;;;;21.13;10.50;;;;;;;;;;5095212;28;20024;-74
2021/12/08 04:05:55;;;;;;;22.88;9.40;;;;;;;;;;5113223;28;20410;-74
2021/12/08 04:08:41;;;;;;;29.15;10.70;;;;;;;;;;5095189;28;20491;-74
2021/12/08 04:11:08;;;;;;;32.45;12.18;;;;;;;;;;5095930;28;20031;-72
2021/12/08 04:13:39;;;;;;;32.92;12.10;;;;;;;;;;5113361;28;20024;-74
2021/12/08 04:16:05;;;;;;;25.10;9.95;;;;;;;;;;5095162;28;20080;-74
2021/12/08 04:18:32;;;;;;;26.65;11.13;;;;;;;;;;5095133;28;20051;-74
2021/12/08 04:20:59;;;;;;;29.48;10.43;;;;;;;;;;5113231;28;20077;-74
2021/12/08 04:23:29;;;;;;;25.55;10.25;;;;;;;;;;5113559;28;20061;-75
2021/12/08 04:25:56;;;;;;;23.02;9.55;;;;;;;;;;5094810;28;20425;-73
2021/12/08 04:28:25;;;;;;;20.45;8.50;;;;;;;;;;5095014;28;20026;-74
2021/12/08 04:30:54;;;;;;;24.38;10.07;;;;;;;;;;5094926;28;20032;-73
2021/12/08 04:33:21;;;;;;;27.50;9.65;;;;;;;;;;5094842;28;20020;-74
2021/12/08 04:35:48;;;;;;;18.13;7.57;;;;;;;;;;5095703;28;20035;-74
2021/12/08 04:38:20;;;;;;;22.85;9.15;;;;;;;;;;5117269;28;20102;-74
2021/12/08 04:41:03;;;;;;;26.40;9.82;;;;;;;;;;5098392;28;20036;-73
2021/12/08 04:44:28;;;;;;;19.55;7.53;;;;;;;;;;5116730;28;20023;-74
2021/12/08 05:04:53;;;;;;;21.20;7.90;;;;;;;;;;5116281;28;20062;-74
2021/12/08 05:09:59;;;;;;;16.88;6.57;;;;;;;;;;5117131;28;20524;-75
2021/12/08 05:12:28;;;;;;;21.17;6.78;;;;;;;;;;5116160;28;20035;-73
2021/12/08 05:14:57;;;;;;;18.45;7.43;;;;;;;;;;5116149;28;20024;-74
2021/12/08 05:17:25;;;;;;;19.30;7.00;;;;;;;;;;5097775;28;20168;-74
2021/12/08 05:19:57;;;;;;;16.02;6.95;;;;;;;;;;5097677;28;20118;-73
2021/12/08 05:22:35;;;;;;;19.45;6.55;;;;;;;;;;5116511;28;20038;-73
2021/12/08 05:25:04;;;;;;;20.90;7.53;;;;;;;;;;5115890;28;20527;-74
2021/12/08 05:27:33;;;;;;;24.95;7.90;;;;;;;;;;5097465;28;20032;-74
2021/12/08 05:30:02;;;;;;;20.23;7.50;;;;;;;;;;5097443;28;20028;-74
2021/12/08 05:32:28;;;;;;;21.10;7.68;;;;;;;;;;5097603;28;20032;-74
2021/12/08 05:34:54;;;;;;;18.52;7.40;;;;;;;;;;5097387;28;20027;-74
2021/12/08 05:37:22;;;;;;;19.17;8.35;;;;;;;;;;5115609;28;20023;-74
2021/12/08 05:39:49;;;;;;;25.67;9.32;;;;;;;;;;5097243;28;20019;-74
2021/12/08 05:42:17;;;;;;;23.85;9.27;;;;;;;;;;5115577;28;20035;-73
2021/12/08 05:44:43;;;;;;;22.58;7.80;;;;;;;;;;5097271;28;20020;-74
2021/12/08 05:47:13;;;;;;;27.35;8.85;;;;;;;;;;5115125;28;20498;-74
2021/12/08 05:49:39;;;;;;;14.35;7.75;;;;;;;;;;5097384;28;20047;-74
2021/12/08 05:52:07;;;;;;;27.60;9.43;;;;;;;;;;5115613;28;20024;-74
2021/12/08 05:54:34;;;;;;;22.67;8.55;;;;;;;;;;5115533;28;20039;-74
2021/12/08 05:57:12;;;;;;;23.90;8.90;;;;;;;;;;5097303;28;20024;-74
2021/12/08 05:59:39;;;;;;;22.10;8.20;;;;;;;;;;5097003;28;20096;-74
2021/12/08 06:02:16;;;;;;;25.48;8.95;;;;;;;;;;5096891;28;20103;-72
2021/12/08 06:04:44;;;;;;;26.08;8.52;;;;;;;;;;5096852;28;20384;-74
2021/12/08 06:07:11;;;;;;;22.23;8.70;;;;;;;;;;5096659;28;20051;-74
2021/12/08 06:09:38;;;;;;;19.58;8.20;;;;;;;;;;5114738;28;20487;-73
2021/12/08 06:12:06;;;;;;;31.38;10.50;;;;;;;;;;5096540;28;20135;-72
2021/12/08 06:14:33;;;;;;;25.10;8.75;;;;;;;;;;5114938;28;20030;-73
2021/12/08 06:17:09;;;;;;;28.55;10.38;;;;;;;;;;5096216;28;20030;-72
2021/12/08 06:19:40;;;;;;;23.15;9.80;;;;;;;;;;5096582;28;20027;-72
2021/12/08 06:22:06;;;;;;;31.23;9.20;;;;;;;;;;5097315;28;20072;-73
2021/12/08 06:24:32;;;;;;;29.65;10.45;;;;;;;;;;5096430;28;20026;-73
2021/12/08 06:26:59;;;;;;;23.25;8.27;;;;;;;;;;5096393;28;20452;-73
2021/12/08 06:29:25;;;;;;;28.35;9.52;;;;;;;;;;5096325;28;20476;-72
2021/12/08 06:31:53;;;;;;;33.05;9.80;;;;;;;;;;5096236;28;20039;-72
2021/12/08 06:34:20;;;;;;;33.00;8.98;;;;;;;;;;5114465;28;20079;-73
2021/12/08 06:36:58;;;;;;;27.27;10.00;;;;;;;;;;5114506;28;20027;-75
2021/12/08 06:39:27;;;;;;;26.30;10.80;;;;;;;;;;5096299;28;20494;-74
2021/12/08 06:41:55;;;;;;;29.33;9.38;;;;;;;;;;5107814;28;20111;-73
2021/12/08 06:44:28;;;;;;;27.27;9.68;;;;;;;;;;5080184;28;20148;-73
2021/12/08 06:46:54;;;;;;;28.27;11.20;;;;;;;;;;5086440;28;20024;-73
2021/12/08 06:49:22;;;;;;;35.13;11.77;;;;;;;;;;5114450;28;20036;-72
2021/12/08 06:51:55;;;;;;;36.28;12.13;;;;;;;;;;5113920;28;20097;-72
2021/12/08 06:54:25;;;;;;;28.90;10.75;;;;;;;;;;5114243;28;20026;-73
2021/12/08 06:56:55;;;;;;;36.00;11.98;;;;;;;;;;5114013;28;20084;-73
2021/12/08 06:59:23;;;;;;;32.72;12.73;;;;;;;;;;5095136;28;20023;-73
2021/12/08 07:02:02;;;;;;;36.83;13.32;;;;;;;;;;5095561;28;20055;-73
2021/12/08 07:05:07;;;;;;;37.72;12.75;;;;;;;;;;5095070;28;20439;-73
2021/12/08 07:07:34;;;;;;;44.00;13.07;;;;;;;;;;5092180;28;20127;-73
2021/12/08 07:10:06;;;;;;;37.15;13.88;;;;;;;;;;5093540;28;20032;-74
2021/12/08 07:12:43;;;;;;;38.97;12.63;;;;;;;;;;5092187;28;20499;-73
2021/12/08 07:15:28;;;;;;;43.30;14.38;;;;;;;;;;5092101;28;20028;-73
2021/12/08 07:17:58;;;;;;;44.67;14.02;;;;;;;;;;5092105;28;20056;-73
2021/12/08 07:23:07;;;;;;;42.78;13.07;;;;;;;;;;5093820;28;20032;-73
2021/12/08 07:25:33;;;;;;;42.72;13.73;;;;;;;;;;5092180;28;20127;-73
2021/12/08 07:28:00;;;;;;;47.40;15.43;;;;;;;;;;5093241;28;20028;-73
2021/12/08 07:30:29;;;;;;;44.65;15.32;;;;;;;;;;5091988;28;20034;-72
2021/12/08 07:32:56;;;;;;;49.88;17.02;;;;;;;;;;5092097;28;20391;-72
2021/12/08 07:35:26;;;;;;;54.33;17.23;;;;;;;;;;5093739;28;20028;-72
2021/12/08 07:37:52;;;;;;;56.03;17.92;;;;;;;;;;5091914;28;20024;-72
2021/12/08 07:40:30;;;;;;;47.75;17.23;;;;;;;;;;5091410;28;20036;-72
2021/12/08 07:42:58;;;;;;;52.45;19.27;;;;;;;;;;5092148;28;20020;-72
2021/12/08 07:45:30;;;;;;;57.25;20.35;;;;;;;;;;5091941;28;20373;-72
2021/12/08 07:47:56;;;;;;;59.70;19.95;;;;;;;;;;5091954;28;20384;-72
2021/12/08 07:50:28;;;;;;;70.60;20.00;;;;;;;;;;5091424;28;20102;-72
2021/12/08 07:52:55;;;;;;;60.28;19.15;;;;;;;;;;5093156;28;20099;-72
2021/12/08 07:55:30;;;;;;;63.53;19.77;;;;;;;;;;5091824;28;20074;-72
2021/12/08 07:57:57;;;;;;;65.00;18.90;;;;;;;;;;5092976;28;20024;-71
2021/12/08 08:00:25;;;;;;;62.28;18.20;;;;;;;;;;5092611;28;20117;-71
2021/12/08 08:02:52;;;;;;;47.47;18.02;;;;;;;;;;5091565;28;20090;-71
2021/12/08 08:05:19;;;;;;;59.28;18.13;;;;;;;;;;5093075;28;20365;-72
2021/12/08 08:07:47;;;;;;;55.72;19.05;;;;;;;;;;5091482;28;20058;-72
2021/12/08 08:10:15;;;;;;;72.20;21.13;;;;;;;;;;5092750;28;20024;-71
2021/12/08 08:12:42;;;;;;;53.85;18.30;;;;;;;;;;5096712;28;20107;-71
2021/12/08 08:15:21;;;;;;;49.83;17.25;;;;;;;;;;5095570;28;20025;-72
2021/12/08 08:17:50;;;;;;;56.65;18.33;;;;;;;;;;5095048;28;20028;-71
2021/12/08 08:20:20;;;;;;;63.22;20.08;;;;;;;;;;5095576;28;20039;-71
2021/12/08 08:22:47;;;;;;;356.45;98.88;;;;;;;;;;5095083;28;20036;-73
2021/12/08 08:25:14;;;;;;;151.70;47.42;;;;;;;;;;5096962;28;20459;-71
2021/12/08 08:27:41;;;;;;;133.88;40.22;;;;;;;;;;5096773;28;20024;-72
2021/12/08 08:30:09;;;;;;;65.00;20.48;;;;;;;;;;5095214;28;20021;-71
2021/12/08 08:32:38;;;;;;;56.60;17.90;;;;;;;;;;5095042;28;20036;-71
2021/12/08 08:35:09;;;;;;;71.05;21.70;;;;;;;;;;5095799;28;20016;-71
2021/12/08 08:37:35;;;;;;;81.85;25.05;;;;;;;;;;5094922;28;20035;-72
2021/12/08 08:40:04;;;;;;;79.65;24.75;;;;;;;;;;5096211;28;20380;-71
2021/12/08 08:42:33;;;;;;;68.57;21.83;;;;;;;;;;5094661;28;20024;-71
2021/12/08 08:45:07;;;;;;;69.55;22.38;;;;;;;;;;5096203;28;20472;-71
2021/12/08 08:47:46;;;;;;;69.32;21.92;;;;;;;;;;5096411;28;20055;-72
2021/12/08 08:50:16;;;;;;;66.55;20.77;;;;;;;;;;5094823;28;20024;-71
2021/12/08 08:52:44;;;;;;;67.53;20.85;;;;;;;;;;5096091;28;20134;-72
2021/12/08 08:55:13;;;;;;;62.70;21.75;;;;;;;;;;5094716;28;20051;-72
2021/12/08 08:57:40;;;;;;;61.70;20.00;;;;;;;;;;5094603;28;20020;-72
2021/12/08 09:00:06;;;;;;;58.30;21.05;;;;;;;;;;5096056;28;20063;-71
2021/12/08 09:02:38;;;;;;;67.22;21.33;;;;;;;;;;5094209;28;20020;-71
2021/12/08 09:05:07;;;;;;;61.60;20.38;;;;;;;;;;5096072;28;20020;-71
2021/12/08 09:07:35;;;;;;;68.32;20.35;;;;;;;;;;5110492;28;20093;-70
2021/12/08 09:10:05;;;;;;;60.88;19.58;;;;;;;;;;5097708;28;20030;-71
2021/12/08 09:12:35;;;;;;;68.97;24.60;;;;;;;;;;5115951;28;20482;-71
2021/12/08 09:15:25;;;;;;;70.35;23.48;;;;;;;;;;5097608;28;20020;-71
2021/12/08 09:17:54;;;;;;;59.25;20.75;;;;;;;;;;5102849;28;20047;-71
2021/12/08 09:20:26;;;;;;;60.22;20.33;;;;;;;;;;5097549;28;20027;-71
2021/12/08 09:22:57;;;;;;;73.55;23.42;;;;;;;;;;5096539;28;20099;-72
2021/12/08 09:25:28;;;;;;;59.78;21.67;;;;;;;;;;5116164;28;20118;-72
2021/12/08 09:27:56;;;;;;;66.35;25.08;;;;;;;;;;5097111;28;20118;-71
2021/12/08 09:30:32;;;;;;;62.95;24.38;;;;;;;;;;5097167;28;20034;-70
2021/12/08 09:33:01;;;;;;;68.13;24.83;;;;;;;;;;5115680;28;20116;-73
2021/12/08 09:35:54;;;;;;;61.55;21.92;;;;;;;;;;5097569;28;20371;-72
2021/12/08 09:38:26;;;;;;;61.97;23.40;;;;;;;;;;5110791;28;20059;-71
2021/12/08 09:40:57;;;;;;;67.78;23.33;;;;;;;;;;5115034;28;20024;-72
2021/12/08 09:43:34;;;;;;;65.80;23.55;;;;;;;;;;5096991;28;20479;-71
2021/12/08 09:46:07;;;;;;;57.88;23.88;;;;;;;;;;5097382;28;20027;-72
2021/12/08 09:48:33;;;;;;;59.80;21.88;;;;;;;;;;5115238;28;20042;-71
2021/12/08 09:51:00;;;;;;;53.85;20.13;;;;;;;;;;5096853;28;20442;-73
2021/12/08 09:53:27;;;;;;;53.20;21.90;;;;;;;;;;5096867;28;20020;-73
2021/12/08 09:55:54;;;;;;;47.35;21.65;;;;;;;;;;5096637;28;20031;-73
2021/12/08 09:58:20;;;;;;;60.15;23.23;;;;;;;;;;5096555;28;20081;-72
2021/12/08 10:00:47;;;;;;;52.17;20.92;;;;;;;;;;5096518;28;20080;-72
2021/12/08 10:03:14;;;;;;;51.88;21.33;;;;;;;;;;5114782;28;20031;-71
2021/12/08 10:05:41;;;;;;;59.85;21.45;;;;;;;;;;5115023;28;20077;-72
2021/12/08 10:08:08;;;;;;;53.17;20.58;;;;;;;;;;5114805;28;20046;-72
2021/12/08 10:10:34;;;;;;;52.53;22.58;;;;;;;;;;5114684;28;20080;-71
2021/12/08 10:13:01;;;;;;;51.08;23.13;;;;;;;;;;5096402;28;20031;-72
2021/12/08 10:15:28;;;;;;;54.53;21.98;;;;;;;;;;5114621;28;20070;-72
2021/12/08 10:17:56;;;;;;;48.38;22.55;;;;;;;;;;5096095;28;20079;-72
2021/12/08 10:20:24;;;;;;;51.50;22.88;;;;;;;;;;5096326;28;20027;-72
2021/12/08 10:23:09;;;;;;;55.13;20.60;;;;;;;;;;5096106;28;20120;-72
2021/12/08 10:25:41;;;;;;;61.33;22.77;;;;;;;;;;5114957;28;20379;-72
2021/12/08 10:28:10;;;;;;;49.63;21.60;;;;;;;;;;5096344;28;20038;-72
2021/12/08 10:30:41;;;;;;;51.70;22.52;;;;;;;;;;5114454;28;20016;-72
2021/12/08 10:33:12;;;;;;;50.55;23.35;;;;;;;;;;5095721;28;20035;-72
2021/12/08 10:35:48;;;;;;;51.47;21.50;;;;;;;;;;5095326;28;20015;-73
2021/12/08 10:38:16;;;;;;;45.80;20.00;;;;;;;;;;5113984;28;20480;-73
2021/12/08 10:41:04;;;;;;;44.92;20.60;;;;;;;;;;5095889;28;20023;-72
2021/12/08 10:43:30;;;;;;;43.17;20.25;;;;;;;;;;5095834;28;20046;-72
2021/12/08 10:46:23;;;;;;;47.30;21.33;;;;;;;;;;5114337;28;20106;-72
2021/12/08 10:48:49;;;;;;;50.03;21.65;;;;;;;;;;5091614;28;20034;-72
2021/12/08 10:54:27;;;;;;;48.67;20.30;;;;;;;;;;5114488;28;20058;-72
2021/12/08 10:56:57;;;;;;;43.08;18.63;;;;;;;;;;5095662;28;20480;-73
2021/12/08 10:59:25;;;;;;;42.00;19.48;;;;;;;;;;5114207;28;20024;-72
2021/12/08 11:01:53;;;;;;;40.80;18.25;;;;;;;;;;5095558;28;20024;-72
2021/12/08 11:04:28;;;;;;;39.97;18.83;;;;;;;;;;5095551;28;20471;-72
2021/12/08 11:07:03;;;;;;;40.47;18.10;;;;;;;;;;5092025;28;20044;-72
2021/12/08 11:09:38;;;;;;;44.92;18.20;;;;;;;;;;5092166;28;20084;-72
2021/12/08 11:12:04;;;;;;;37.05;17.55;;;;;;;;;;5092227;28;20046;-73
2021/12/08 11:14:42;;;;;;;42.65;18.83;;;;;;;;;;5093673;28;20358;-72
2021/12/08 11:17:23;;;;;;;45.92;18.67;;;;;;;;;;5092100;28;20024;-73
2021/12/08 11:19:49;;;;;;;40.38;17.20;;;;;;;;;;5093457;28;20030;-72
2021/12/08 11:22:17;;;;;;;44.63;20.20;;;;;;;;;;5091869;28;20028;-73
2021/12/08 11:24:56;;;;;;;45.50;19.33;;;;;;;;;;5092100;28;20438;-72
2021/12/08 11:27:36;;;;;;;40.38;18.90;;;;;;;;;;5093560;28;20468;-72
2021/12/08 11:30:12;;;;;;;45.38;18.50;;;;;;;;;;5076367;28;20040;-73
2021/12/08 11:32:38;;;;;;;36.90;16.67;;;;;;;;;;5092000;28;20067;-72
2021/12/08 11:35:05;;;;;;;37.95;16.90;;;;;;;;;;5092027;28;20028;-73
2021/12/08 11:37:35;;;;;;;44.90;18.60;;;;;;;;;;5091703;28;20085;-72
2021/12/08 11:40:02;;;;;;;43.58;18.58;;;;;;;;;;5091975;28;20026;-73
2021/12/08 11:42:31;;;;;;;40.30;17.98;;;;;;;;;;5091594;28;20024;-73
2021/12/08 11:44:59;;;;;;;38.22;16.92;;;;;;;;;;5092707;28;20031;-72
2021/12/08 11:47:28;;;;;;;41.40;16.92;;;;;;;;;;5096067;28;20464;-73
2021/12/08 11:49:56;;;;;;;42.63;19.02;;;;;;;;;;5096031;28;20106;-73
2021/12/08 11:52:25;;;;;;;41.60;16.65;;;;;;;;;;5095906;28;20036;-73
2021/12/08 11:54:54;;;;;;;42.47;16.02;;;;;;;;;;5097674;28;20397;-73
2021/12/08 11:57:25;;;;;;;34.58;14.23;;;;;;;;;;5095727;28;20085;-73
2021/12/08 11:59:57;;;;;;;38.28;14.25;;;;;;;;;;5095786;28;20104;-73
2021/12/08 12:02:26;;;;;;;24.95;9.88;;;;;;;;;;5095289;28;20024;-73
2021/12/08 12:04:52;;;;;;;25.75;9.60;;;;;;;;;;5095616;28;20066;-71
2021/12/08 12:07:19;;;;;;;14.73;7.28;;;;;;;;;;5109442;28;20126;-73
2021/12/08 12:09:46;;;;;;;18.00;7.25;;;;;;;;;;5099014;28;20529;-73
2021/12/08 12:12:13;;;;;;;20.40;8.63;;;;;;;;;;5098922;28;20165;-72
2021/12/08 12:14:39;;;;;;;16.88;7.55;;;;;;;;;;5098880;28;20030;-72
2021/12/08 12:17:05;;;;;;;25.88;11.13;;;;;;;;;;5098819;28;20084;-73
2021/12/08 12:19:34;;;;;;;23.65;10.90;;;;;;;;;;5098693;28;20072;-72
2021/12/08 12:22:13;;;;;;;32.90;14.15;;;;;;;;;;5098640;28;20345;-72
2021/12/08 12:25:02;;;;;;;29.15;12.63;;;;;;;;;;5116824;28;20084;-72
2021/12/08 12:27:32;;;;;;;35.25;16.33;;;;;;;;;;5081996;28;20525;-72
2021/12/08 12:30:17;;;;;;;33.38;15.73;;;;;;;;;;5116755;28;20018;-72
2021/12/08 12:32:49;;;;;;;41.13;18.05;;;;;;;;;;5098594;28;20054;-71
2021/12/08 12:35:18;;;;;;;43.92;17.73;;;;;;;;;;5117216;28;20062;-73
2021/12/08 12:37:44;;;;;;;40.25;18.15;;;;;;;;;;5098220;28;20379;-73
2021/12/08 12:40:15;;;;;;;40.22;17.92;;;;;;;;;;5098263;28;20024;-72
2021/12/08 12:42:47;;;;;;;41.47;18.58;;;;;;;;;;5098096;28;20024;-72
2021/12/08 12:45:14;;;;;;;42.38;18.67;;;;;;;;;;5098395;28;20077;-72
2021/12/08 12:47:41;;;;;;;45.25;20.30;;;;;;;;;;5116600;28;20023;-72
2021/12/08 12:50:25;;;;;;;43.45;20.25;;;;;;;;;;5098082;28;20028;-72
2021/12/08 12:52:56;;;;;;;45.20;18.40;;;;;;;;;;5081457;28;20110;-72
2021/12/08 12:55:24;;;;;;;40.85;19.13;;;;;;;;;;5098211;28;20019;-72
2021/12/08 12:58:10;;;;;;;38.53;18.02;;;;;;;;;;5096628;28;20051;-72
2021/12/08 13:00:38;;;;;;;40.60;18.27;;;;;;;;;;5097814;28;20058;-72
2021/12/08 13:03:06;;;;;;;47.45;18.15;;;;;;;;;;5116219;28;20027;-72
2021/12/08 13:05:50;;;;;;;41.47;16.40;;;;;;;;;;5116197;28;20026;-72
2021/12/08 13:08:30;;;;;;;37.10;16.20;;;;;;;;;;5116137;28;20032;-72
2021/12/08 13:10:58;;;;;;;43.83;19.40;;;;;;;;;;5097744;28;20076;-71
2021/12/08 13:13:25;;;;;;;39.47;16.42;;;;;;;;;;5097877;28;20024;-72
2021/12/08 13:15:51;;;;;;;44.35;18.83;;;;;;;;;;5097702;28;20479;-72
2021/12/08 13:18:18;;;;;;;43.63;19.00;;;;;;;;;;5097412;28;20024;-73
2021/12/08 13:20:56;;;;;;;41.13;17.90;;;;;;;;;;5097575;28;20024;-72
2021/12/08 13:23:25;;;;;;;39.17;17.83;;;;;;;;;;5097381;28;20027;-72
2021/12/08 13:26:18;;;;;;;39.00;16.38;;;;;;;;;;5097655;28;20379;-73
2021/12/08 13:31:26;;;;;;;37.40;17.70;;;;;;;;;;5115738;28;20044;-72
2021/12/08 13:33:52;;;;;;;40.78;18.25;;;;;;;;;;5097354;28;20046;-72
2021/12/08 13:36:31;;;;;;;37.28;16.10;;;;;;;;;;5097342;28;20088;-72
2021/12/08 13:39:00;;;;;;;40.15;18.05;;;;;;;;;;5115357;28;20016;-72
2021/12/08 13:41:32;;;;;;;37.70;16.85;;;;;;;;;;5095139;28;20150;-72
2021/12/08 13:43:58;;;;;;;38.75;17.58;;;;;;;;;;5094760;28;20023;-72
2021/12/08 13:46:45;;;;;;;38.28;16.38;;;;;;;;;;5094997;28;20047;-71
2021/12/08 13:49:15;;;;;;;36.60;15.35;;;;;;;;;;5096600;28;20024;-71
2021/12/08 13:51:43;;;;;;;36.45;16.38;;;;;;;;;;5113661;28;20368;-72
2021/12/08 13:54:27;;;;;;;39.85;16.73;;;;;;;;;;5115109;28;20019;-73
2021/12/08 13:56:54;;;;;;;38.97;17.13;;;;;;;;;;5096786;28;20032;-72
2021/12/08 13:59:55;;;;;;;37.75;16.20;;;;;;;;;;5115143;28;20080;-73
2021/12/08 14:02:25;;;;;;;35.80;14.70;;;;;;;;;;5044304;28;20131;-71
2021/12/08 14:05:01;;;;;;;39.78;17.80;;;;;;;;;;5096708;28;20028;-73
2021/12/08 14:07:27;;;;;;;36.58;16.83;;;;;;;;;;5114492;28;20100;-73
2021/12/08 14:09:58;;;;;;;37.08;16.38;;;;;;;;;;5096610;28;20106;-73
2021/12/08 14:12:24;;;;;;;38.75;16.67;;;;;;;;;;5096375;28;20035;-72
2021/12/08 14:14:54;;;;;;;34.08;14.98;;;;;;;;;;5096930;28;20063;-73
2021/12/08 14:17:30;;;;;;;39.60;14.10;;;;;;;;;;5096489;28;20035;-73
2021/12/08 14:19:56;;;;;;;39.17;16.90;;;;;;;;;;5114687;28;20072;-72
2021/12/08 14:22:35;;;;;;;37.08;14.75;;;;;;;;;;5114492;28;20115;-73
2021/12/08 14:25:02;;;;;;;41.10;16.48;;;;;;;;;;5096266;28;20162;-72
2021/12/08 14:27:31;;;;;;;38.20;15.43;;;;;;;;;;5114649;28;20031;-72
2021/12/08 14:29:58;;;;;;;39.42;15.88;;;;;;;;;;5096723;28;20114;-72
2021/12/08 14:32:24;;;;;;;43.10;18.40;;;;;;;;;;5096073;28;20032;-72
2021/12/08 14:34:50;;;;;;;42.95;18.73;;;;;;;;;;5113798;28;20016;-71
2021/12/08 14:37:16;;;;;;;39.25;17.60;;;;;;;;;;5096092;28;20035;-72
2021/12/08 14:39:49;;;;;;;40.97;16.70;;;;;;;;;;5096023;28;20051;-72
2021/12/08 14:42:17;;;;;;;39.63;16.98;;;;;;;;;;5096035;28;20044;-72
2021/12/08 14:44:50;;;;;;;44.03;17.67;;;;;;;;;;5114302;28;20028;-72
2021/12/08 14:47:19;;;;;;;43.05;17.63;;;;;;;;;;5095998;28;20031;-71
2021/12/08 14:49:50;;;;;;;36.42;15.63;;;;;;;;;;5095932;28;20024;-71
2021/12/08 14:52:18;;;;;;;44.97;17.70;;;;;;;;;;5114165;28;20108;-71
2021/12/08 14:54:51;;;;;;;45.95;19.40;;;;;;;;;;5114350;28;20042;-72
2021/12/08 14:57:21;;;;;;;44.42;18.08;;;;;;;;;;5114231;28;20076;-71
2021/12/08 14:59:52;;;;;;;46.92;18.25;;;;;;;;;;5095774;28;20027;-72
2021/12/08 15:02:23;;;;;;;46.13;18.27;;;;;;;;;;5095893;28;20016;-71
2021/12/08 15:04:50;;;;;;;51.33;18.48;;;;;;;;;;5095623;28;20028;-72
2021/12/08 15:07:20;;;;;;;45.33;18.92;;;;;;;;;;5113707;28;20058;-71
2021/12/08 15:10:18;;;;;;;44.80;19.05;;;;;;;;;;5114063;28;20034;-71
2021/12/08 15:12:46;;;;;;;45.22;18.02;;;;;;;;;;5041378;28;20066;-71
2021/12/08 15:15:15;;;;;;;48.88;20.00;;;;;;;;;;5095421;28;20026;-72
2021/12/08 15:17:42;;;;;;;47.83;18.77;;;;;;;;;;5095423;28;20027;-71
2021/12/08 15:20:08;;;;;;;51.17;19.60;;;;;;;;;;5113414;28;20019;-73
2021/12/08 15:22:42;;;;;;;46.83;18.40;;;;;;;;;;5095103;28;20031;-72
2021/12/08 15:25:08;;;;;;;;;;;;;;;;;;5095659;28;20081;-72
2021/12/08 15:27:38;;;;;;;41.13;17.63;;;;;;;;;;5113599;28;19904;-72